Lake Geneva, Florida
Current Conditions -  °F | °C
As of 4:15 PM on Sunday 23 Nov 2014 (Local Time) from K42J Reporting Station
Broken Clouds Broken Clouds  
Wind Chill: 79°   Ceiling: 6000
Heat Index: 82°   Visibility: 7mi
Dew Point: 72°   Wind: 6mph
Humidity: 78%   Direction: 220°SW
Pressure: 29.86"   Gusts: NA
Location:  29.77°N, 82.01°W
Report Text: K42J 232115Z AUTO 22005KT 7SM SCT038 SCT047 BKN060 26/22 A2986 RMK AO1 TSNO
Loading
Personal Weather Stations






























Interactive Weather Map New forecast layout! Learn more

10-Day Weather Forecast

Advertisements
Track Severe Weather on mobile